createdAt,value
2019-05-07T00:00:34.428Z,5.70
2019-05-07T00:03:05.552Z,5.60
2019-05-07T00:05:35.880Z,5.60
2019-05-07T00:08:05.729Z,5.60
2019-05-07T00:10:35.254Z,5.60
2019-05-07T00:13:05.475Z,5.60
2019-05-07T00:15:35.302Z,5.60
2019-05-07T00:18:06.154Z,5.60
2019-05-07T00:20:35.686Z,5.60
2019-05-07T00:23:05.426Z,5.50
2019-05-07T00:25:35.150Z,5.30
2019-05-07T00:28:05.508Z,5.10
2019-05-07T00:30:35.388Z,4.90
2019-05-07T00:33:04.827Z,4.80
2019-05-07T00:35:42.891Z,4.70
2019-05-07T00:38:17.274Z,4.70
2019-05-07T00:40:52.039Z,4.80
2019-05-07T00:43:24.384Z,4.90
2019-05-07T00:45:57.098Z,5.00
2019-05-07T00:48:27.347Z,5.00
2019-05-07T00:50:59.021Z,5.10
2019-05-07T00:53:28.769Z,5.10
2019-05-07T00:55:58.509Z,5.10
2019-05-07T00:58:28.394Z,5.20
2019-05-07T01:00:58.141Z,5.20
2019-05-07T01:03:28.022Z,5.20
2019-05-07T01:05:57.947Z,5.20
2019-05-07T01:08:27.927Z,5.20
2019-05-07T01:10:57.361Z,5.20
2019-05-07T01:13:27.007Z,5.20
2019-05-07T01:15:57.311Z,5.20
2019-05-07T01:18:27.261Z,5.20
2019-05-07T01:20:57.418Z,5.10
2019-05-07T01:23:27.115Z,5.10
2019-05-07T01:25:56.857Z,5.10
2019-05-07T01:28:26.525Z,5.10
2019-05-07T01:30:56.277Z,5.10
2019-05-07T01:33:34.346Z,5.10
2019-05-07T01:36:15.385Z,5.10
2019-05-07T01:38:45.423Z,5.10
2019-05-07T01:41:14.977Z,5.10
2019-05-07T01:43:44.613Z,5.10
2019-05-07T01:46:13.970Z,5.00
2019-05-07T01:48:43.895Z,5.00
2019-05-07T01:51:13.564Z,4.90
2019-05-07T01:53:43.298Z,4.80
2019-05-07T01:56:12.881Z,4.80
2019-05-07T01:58:42.651Z,4.90
2019-05-07T02:01:13.207Z,4.90
2019-05-07T02:03:47.518Z,5.00
2019-05-07T02:09:28.159Z,5.00
2019-05-07T02:12:02.623Z,5.00
2019-05-07T02:14:33.130Z,5.00
2019-05-07T02:17:03.202Z,5.00
2019-05-07T02:19:33.170Z,4.80
2019-05-07T02:22:04.376Z,4.70
2019-05-07T02:24:34.634Z,4.60
2019-05-07T02:27:04.176Z,4.50
2019-05-07T02:29:33.803Z,4.60
2019-05-07T02:32:04.600Z,4.70
2019-05-07T02:34:35.266Z,4.70
2019-05-07T02:37:06.718Z,4.70
2019-05-07T02:39:44.685Z,4.80
2019-05-07T02:42:14.460Z,4.80
2019-05-07T02:45:04.161Z,4.80
2019-05-07T02:47:34.854Z,4.70
2019-05-07T02:50:12.937Z,4.70
2019-05-07T02:52:59.842Z,4.60
2019-05-07T02:55:33.907Z,4.60
2019-05-07T02:58:03.974Z,4.60
2019-05-07T03:00:34.334Z,4.60
2019-05-07T03:03:04.703Z,4.60
2019-05-07T03:05:35.309Z,4.60
2019-05-07T03:08:05.547Z,4.70
2019-05-07T03:10:35.036Z,4.70
2019-05-07T03:13:04.820Z,4.70
2019-05-07T03:15:35.324Z,4.80
2019-05-07T03:18:05.209Z,4.80
2019-05-07T03:20:42.991Z,4.70
2019-05-07T03:23:14.348Z,4.70
2019-05-07T03:25:54.024Z,4.70
2019-05-07T03:28:26.553Z,4.70
2019-05-07T03:31:09.734Z,4.70
2019-05-07T03:33:46.576Z,4.80
2019-05-07T03:36:16.583Z,4.80
2019-05-07T03:38:44.836Z,4.70
2019-05-07T03:41:14.471Z,4.60
2019-05-07T03:43:44.791Z,4.60
2019-05-07T03:46:18.798Z,4.40
2019-05-07T03:48:48.512Z,4.40
2019-05-07T03:51:18.769Z,4.50
2019-05-07T03:53:48.316Z,4.50
2019-05-07T03:56:19.479Z,4.50
2019-05-07T03:58:49.260Z,4.50
2019-05-07T04:01:18.699Z,4.40
2019-05-07T04:03:48.346Z,4.40
2019-05-07T04:06:19.157Z,4.50
2019-05-07T04:08:49.017Z,4.50
2019-05-07T04:11:18.917Z,4.40
2019-05-07T04:13:49.071Z,4.50
2019-05-07T04:16:19.800Z,4.50
2019-05-07T04:18:52.813Z,4.50
2019-05-07T04:21:23.161Z,4.50
2019-05-07T04:23:54.795Z,4.50
2019-05-07T04:26:33.891Z,4.50
2019-05-07T04:29:06.147Z,4.50
2019-05-07T04:31:55.805Z,4.50
2019-05-07T04:34:44.671Z,4.60
2019-05-07T04:37:15.410Z,4.60
2019-05-07T04:39:54.055Z,4.60
2019-05-07T04:42:24.746Z,4.70
2019-05-07T04:44:54.338Z,4.60
2019-05-07T04:47:41.221Z,4.60
2019-05-07T04:49:56.047Z,4.60
2019-05-07T04:52:36.725Z,4.60
2019-05-07T04:55:07.678Z,4.60
2019-05-07T04:57:37.346Z,4.70
2019-05-07T05:00:09.212Z,4.80
2019-05-07T05:02:53.155Z,4.90
2019-05-07T05:05:24.050Z,4.90
2019-05-07T05:07:53.880Z,5.00
2019-05-07T05:10:23.823Z,5.00
2019-05-07T05:12:53.929Z,5.10
2019-05-07T05:15:23.850Z,5.00
2019-05-07T05:17:54.136Z,5.00
2019-05-07T05:20:25.894Z,5.10
2019-05-07T05:23:03.480Z,5.10
2019-05-07T05:25:34.765Z,5.20
2019-05-07T05:28:04.750Z,5.20
2019-05-07T05:30:36.827Z,5.20
2019-05-07T05:33:06.532Z,5.40
2019-05-07T05:35:38.598Z,5.40
2019-05-07T05:38:12.729Z,5.50
2019-05-07T05:40:42.953Z,5.50
2019-05-07T05:43:31.774Z,5.70
2019-05-07T05:46:07.230Z,5.80
2019-05-07T05:48:38.553Z,5.80
2019-05-07T05:51:25.183Z,6.00
2019-05-07T05:54:02.809Z,6.00
2019-05-07T05:56:51.862Z,6.10
2019-05-07T05:59:32.502Z,6.10
2019-05-07T06:02:06.483Z,6.20
2019-05-07T06:04:49.006Z,6.20
2019-05-07T06:07:24.227Z,6.30
2019-05-07T06:10:02.552Z,6.30
2019-05-07T06:12:42.701Z,6.40
2019-05-07T06:15:30.171Z,6.50
2019-05-07T06:18:02.771Z,6.60
2019-05-07T06:20:53.551Z,6.60
2019-05-07T06:23:25.188Z,6.70
2019-05-07T06:25:55.150Z,6.90
2019-05-07T06:28:25.082Z,7.20
2019-05-07T06:30:54.609Z,7.30
2019-05-07T06:33:24.443Z,7.30
2019-05-07T06:35:53.997Z,7.30
2019-05-07T06:38:26.332Z,7.40
2019-05-07T06:41:02.546Z,7.50
2019-05-07T06:43:36.036Z,7.40
2019-05-07T06:46:14.457Z,7.40
2019-05-07T06:48:46.240Z,7.50
2019-05-07T06:51:17.557Z,7.70
2019-05-07T06:53:48.060Z,7.80
2019-05-07T06:56:18.111Z,7.70
2019-05-07T06:58:49.618Z,7.70
2019-05-07T07:01:22.789Z,8.00
2019-05-07T07:04:02.338Z,8.10
2019-05-07T07:06:48.859Z,8.30
2019-05-07T07:09:29.355Z,8.30
2019-05-07T07:12:01.995Z,8.40
2019-05-07T07:14:33.114Z,8.70
2019-05-07T07:17:03.347Z,8.60
2019-05-07T07:19:35.887Z,8.60
2019-05-07T07:22:05.094Z,8.80
2019-05-07T07:24:35.261Z,8.80
2019-05-07T07:27:05.095Z,9.00
2019-05-07T07:29:36.735Z,9.00
2019-05-07T07:32:08.422Z,9.00
2019-05-07T07:34:43.672Z,9.10
2019-05-07T07:37:17.901Z,9.10
2019-05-07T07:39:47.485Z,9.40
2019-05-07T07:42:17.506Z,9.40
2019-05-07T07:44:48.693Z,9.50
2019-05-07T07:47:18.158Z,9.80
2019-05-07T07:49:47.977Z,9.90
2019-05-07T07:52:17.423Z,10.10
2019-05-07T07:54:47.490Z,10.00
2019-05-07T07:57:18.857Z,9.90
2019-05-07T07:59:50.152Z,10.00
2019-05-07T08:02:23.110Z,9.90
2019-05-07T08:04:52.931Z,9.70
2019-05-07T08:07:22.976Z,9.90
2019-05-07T08:09:52.917Z,10.20
2019-05-07T08:12:22.401Z,10.40
2019-05-07T08:14:52.108Z,10.50
2019-05-07T08:17:22.546Z,10.40
2019-05-07T08:19:52.205Z,10.40
2019-05-07T08:22:22.650Z,10.50
2019-05-07T08:24:52.448Z,10.60
2019-05-07T08:27:22.371Z,10.50
2019-05-07T08:29:52.576Z,10.40
2019-05-07T08:32:24.192Z,10.80
2019-05-07T08:35:14.065Z,10.70
2019-05-07T08:37:43.074Z,11.00
2019-05-07T08:40:13.296Z,11.30
2019-05-07T08:42:44.421Z,11.20
2019-05-07T08:45:32.984Z,11.00
2019-05-07T08:48:13.413Z,10.90
2019-05-07T08:50:43.149Z,10.80
2019-05-07T08:53:13.339Z,10.80
2019-05-07T08:55:43.012Z,11.10
2019-05-07T08:58:33.744Z,11.50
2019-05-07T09:01:03.636Z,11.60
2019-05-07T09:03:45.187Z,11.60
2019-05-07T09:06:15.057Z,11.80
2019-05-07T09:08:46.008Z,11.80
2019-05-07T09:11:16.437Z,11.70
2019-05-07T09:13:46.161Z,11.80
2019-05-07T09:16:16.066Z,11.80
2019-05-07T09:18:45.787Z,11.60
2019-05-07T09:21:15.418Z,11.40
2019-05-07T09:23:45.630Z,11.50
2019-05-07T09:26:18.143Z,11.50
2019-05-07T09:28:52.274Z,11.50
2019-05-07T09:31:23.539Z,11.60
2019-05-07T09:33:54.737Z,11.60
2019-05-07T09:36:26.015Z,11.50
2019-05-07T09:38:58.970Z,11.40
2019-05-07T09:41:27.101Z,11.40
2019-05-07T09:43:57.769Z,11.50
2019-05-07T09:46:28.393Z,11.50
2019-05-07T09:48:58.047Z,11.40
2019-05-07T09:51:27.796Z,11.30
2019-05-07T09:53:57.718Z,11.30
2019-05-07T09:56:28.142Z,11.40
2019-05-07T09:58:58.348Z,11.20
2019-05-07T10:01:28.280Z,11.10
2019-05-07T10:03:59.340Z,11.10
2019-05-07T10:06:29.059Z,11.10
2019-05-07T10:08:58.879Z,11.20
2019-05-07T10:11:32.752Z,11.30
2019-05-07T10:14:12.329Z,11.30
2019-05-07T10:17:02.608Z,11.40
2019-05-07T10:19:32.562Z,11.20
2019-05-07T10:22:02.453Z,11.20
2019-05-07T10:24:32.526Z,11.50
2019-05-07T10:27:02.512Z,12.00
2019-05-07T10:29:32.406Z,12.20
2019-05-07T10:32:02.406Z,12.30
2019-05-07T10:34:32.180Z,12.70
2019-05-07T10:37:02.710Z,13.00
2019-05-07T10:39:32.682Z,13.40
2019-05-07T10:42:02.550Z,13.30
2019-05-07T10:44:36.470Z,13.50
2019-05-07T10:47:24.392Z,13.40
2019-05-07T10:50:12.026Z,12.90
2019-05-07T10:52:42.481Z,12.50
2019-05-07T10:55:13.079Z,12.20
2019-05-07T10:57:42.673Z,12.10
2019-05-07T11:00:16.377Z,12.00
2019-05-07T11:02:47.599Z,11.90
2019-05-07T11:05:17.979Z,11.90
2019-05-07T11:07:49.198Z,11.70
2019-05-07T11:10:21.819Z,11.90
2019-05-07T11:12:51.868Z,11.80
2019-05-07T11:15:22.079Z,11.80
2019-05-07T11:18:02.841Z,11.70
2019-05-07T11:20:46.551Z,11.60
2019-05-07T11:23:05.362Z,11.80
2019-05-07T11:25:35.343Z,11.90
2019-05-07T11:28:05.749Z,12.00
2019-05-07T11:30:35.559Z,12.20
2019-05-07T11:33:05.225Z,12.30
2019-05-07T11:35:34.887Z,12.40
2019-05-07T11:38:17.757Z,12.40
2019-05-07T11:40:35.796Z,12.50
2019-05-07T11:43:13.213Z,12.40
2019-05-07T11:45:44.536Z,12.40
2019-05-07T11:48:14.527Z,12.60
2019-05-07T11:51:04.292Z,12.90
2019-05-07T11:53:41.790Z,12.90
2019-05-07T11:56:11.736Z,12.80
2019-05-07T11:58:43.347Z,12.60
2019-05-07T12:01:14.609Z,12.60
2019-05-07T12:03:44.402Z,12.40
2019-05-07T12:06:13.776Z,12.30
2019-05-07T12:08:51.301Z,12.20
2019-05-07T12:11:14.858Z,12.30
2019-05-07T12:13:44.792Z,12.60
2019-05-07T12:16:14.475Z,12.80
2019-05-07T12:18:44.204Z,13.10
2019-05-07T12:21:20.234Z,13.40
2019-05-07T12:23:44.858Z,13.40
2019-05-07T12:26:14.517Z,13.40
2019-05-07T12:28:44.470Z,13.60
2019-05-07T12:31:28.223Z,13.70
2019-05-07T12:34:02.423Z,13.60
2019-05-07T12:36:32.140Z,13.80
2019-05-07T12:39:02.270Z,14.10
2019-05-07T12:41:34.148Z,14.00
2019-05-07T12:44:07.170Z,14.00
2019-05-07T12:46:37.353Z,14.00
2019-05-07T12:49:06.918Z,13.60
2019-05-07T12:51:38.612Z,13.70
2019-05-07T12:54:14.376Z,13.60
2019-05-07T12:56:44.286Z,13.60
2019-05-07T12:59:14.036Z,13.20
2019-05-07T13:01:48.519Z,13.10
2019-05-07T13:04:29.062Z,13.20
2019-05-07T13:07:12.864Z,13.30
2019-05-07T13:09:42.846Z,13.80
2019-05-07T13:12:12.601Z,13.80
2019-05-07T13:14:42.252Z,14.00
2019-05-07T13:17:12.094Z,14.00
2019-05-07T13:19:42.518Z,13.80
2019-05-07T13:22:13.023Z,13.60
2019-05-07T13:24:42.794Z,13.40
2019-05-07T13:27:12.415Z,13.10
2019-05-07T13:29:44.848Z,13.10
2019-05-07T13:32:15.535Z,13.60
2019-05-07T13:34:47.308Z,14.10
2019-05-07T13:37:19.055Z,14.90
2019-05-07T13:39:56.619Z,14.90
2019-05-07T13:42:44.360Z,14.70
2019-05-07T13:45:18.495Z,14.70
2019-05-07T13:47:51.801Z,14.90
2019-05-07T13:50:22.120Z,15.60
2019-05-07T13:52:51.975Z,15.80
2019-05-07T13:55:21.933Z,15.50
2019-05-07T13:57:52.417Z,15.10
2019-05-07T14:00:24.499Z,15.00
2019-05-07T14:02:55.044Z,14.70
2019-05-07T14:05:24.799Z,14.70
2019-05-07T14:07:54.597Z,14.50
2019-05-07T14:10:24.199Z,14.60
2019-05-07T14:13:07.615Z,15.50
2019-05-07T14:15:26.933Z,16.20
2019-05-07T14:17:56.915Z,16.70
2019-05-07T14:20:26.386Z,16.50
2019-05-07T14:22:56.875Z,16.30
2019-05-07T14:25:26.707Z,16.20
2019-05-07T14:27:58.815Z,15.90
2019-05-07T14:30:28.061Z,16.10
2019-05-07T14:33:01.843Z,16.60
2019-05-07T14:35:36.091Z,16.50
2019-05-07T14:38:13.857Z,15.90
2019-05-07T14:40:44.109Z,15.30
2019-05-07T14:43:21.943Z,14.90
2019-05-07T14:45:52.273Z,14.50
2019-05-07T14:48:22.762Z,14.30
2019-05-07T14:50:53.087Z,14.20
2019-05-07T14:53:23.174Z,14.20
2019-05-07T14:55:52.781Z,14.30
2019-05-07T14:58:22.648Z,14.60
2019-05-07T15:00:52.476Z,15.10
2019-05-07T15:03:22.869Z,15.40
2019-05-07T15:05:53.510Z,15.60
2019-05-07T15:08:23.401Z,15.40
2019-05-07T15:10:53.123Z,15.10
2019-05-07T15:13:22.968Z,15.00
2019-05-07T15:15:54.382Z,14.80
2019-05-07T15:18:28.375Z,14.70
2019-05-07T15:20:58.168Z,14.70
2019-05-07T15:23:32.429Z,14.50
2019-05-07T15:26:04.727Z,14.40
2019-05-07T15:28:35.989Z,14.30
2019-05-07T15:31:12.090Z,14.40
2019-05-07T15:33:41.779Z,14.30
2019-05-07T15:36:12.042Z,14.00
2019-05-07T15:38:42.888Z,13.90
2019-05-07T15:41:12.712Z,13.80
2019-05-07T15:43:45.883Z,13.90
2019-05-07T15:46:13.457Z,13.90
2019-05-07T15:48:43.415Z,13.90
2019-05-07T15:51:13.147Z,14.00
2019-05-07T15:53:52.229Z,13.70
2019-05-07T15:56:22.431Z,13.70
2019-05-07T15:58:52.085Z,13.70
2019-05-07T16:01:22.323Z,13.70
2019-05-07T16:03:54.968Z,13.70
2019-05-07T16:06:24.871Z,13.60
2019-05-07T16:08:56.236Z,13.70
2019-05-07T16:11:27.359Z,13.60
2019-05-07T16:14:06.848Z,13.50
2019-05-07T16:16:38.248Z,13.50
2019-05-07T16:19:12.703Z,13.70
2019-05-07T16:21:42.625Z,13.70
2019-05-07T16:24:12.570Z,13.70
2019-05-07T16:26:42.422Z,13.70
2019-05-07T16:29:13.296Z,13.70
2019-05-07T16:31:44.264Z,13.60
2019-05-07T16:34:14.174Z,13.70
2019-05-07T16:36:43.936Z,13.70
2019-05-07T16:39:14.423Z,13.70
2019-05-07T16:41:43.862Z,13.80
2019-05-07T16:44:14.222Z,13.70
2019-05-07T16:46:44.175Z,13.80
2019-05-07T16:49:14.282Z,13.80
2019-05-07T16:51:44.812Z,14.00
2019-05-07T16:54:14.481Z,13.80
2019-05-07T16:57:03.194Z,13.90
2019-05-07T16:59:32.854Z,14.00
2019-05-07T17:02:04.203Z,14.00
2019-05-07T17:04:33.648Z,14.00
2019-05-07T17:07:04.732Z,13.80
2019-05-07T17:09:35.496Z,13.70
2019-05-07T17:12:07.271Z,13.80
2019-05-07T17:14:37.619Z,13.70
2019-05-07T17:17:08.383Z,13.70
2019-05-07T17:19:38.406Z,13.70
2019-05-07T17:22:08.707Z,13.70
2019-05-07T17:24:38.468Z,13.60
2019-05-07T17:27:08.181Z,13.40
2019-05-07T17:29:37.624Z,13.30
2019-05-07T17:32:07.169Z,13.30
2019-05-07T17:34:37.394Z,13.40
2019-05-07T17:37:06.839Z,13.30
2019-05-07T17:39:36.823Z,13.40
2019-05-07T17:42:07.128Z,13.30
2019-05-07T17:44:37.176Z,13.20
2019-05-07T17:47:07.114Z,13.20
2019-05-07T17:49:36.832Z,13.10
2019-05-07T17:52:06.941Z,13.10
2019-05-07T17:54:36.752Z,13.10
2019-05-07T17:57:08.141Z,13.00
2019-05-07T17:59:38.272Z,12.90
2019-05-07T18:02:21.885Z,12.70
2019-05-07T18:04:54.071Z,12.70
2019-05-07T18:07:22.389Z,12.60
2019-05-07T18:09:52.250Z,12.60
2019-05-07T18:12:22.585Z,12.50
2019-05-07T18:14:52.854Z,12.50
2019-05-07T18:17:42.076Z,12.40
2019-05-07T18:20:12.895Z,12.30
2019-05-07T18:22:43.183Z,12.20
2019-05-07T18:25:12.778Z,12.20
2019-05-07T18:27:42.594Z,12.20
2019-05-07T18:30:12.938Z,12.10
2019-05-07T18:32:52.012Z,12.10
2019-05-07T18:35:23.130Z,12.00
2019-05-07T18:37:52.934Z,12.00
2019-05-07T18:40:23.097Z,12.00
2019-05-07T18:42:52.945Z,12.00
2019-05-07T18:45:22.428Z,11.90
2019-05-07T18:47:52.735Z,11.90
2019-05-07T18:50:22.847Z,11.80
2019-05-07T18:52:52.789Z,11.80
2019-05-07T18:55:22.781Z,11.80
2019-05-07T18:57:52.806Z,11.80
2019-05-07T19:00:24.656Z,11.70
2019-05-07T19:02:54.127Z,11.70
2019-05-07T19:05:23.764Z,11.60
2019-05-07T19:08:04.737Z,11.60
2019-05-07T19:10:25.677Z,11.60
2019-05-07T19:12:55.448Z,11.50
2019-05-07T19:15:25.402Z,11.40
2019-05-07T19:17:56.638Z,11.40
2019-05-07T19:20:26.401Z,11.30
2019-05-07T19:22:56.261Z,11.30
2019-05-07T19:25:26.382Z,11.20
2019-05-07T19:27:56.325Z,11.20
2019-05-07T19:30:26.008Z,11.20
2019-05-07T19:32:55.861Z,11.10
2019-05-07T19:35:25.383Z,11.00
2019-05-07T19:37:55.186Z,11.00
2019-05-07T19:40:24.718Z,11.00
2019-05-07T19:42:54.866Z,11.00
2019-05-07T19:45:24.865Z,10.90
2019-05-07T19:47:54.513Z,10.90
2019-05-07T19:50:24.230Z,10.90
2019-05-07T19:52:55.147Z,10.80
2019-05-07T19:55:26.355Z,10.80
2019-05-07T19:58:06.704Z,10.80
2019-05-07T20:00:36.498Z,10.80
2019-05-07T20:03:06.336Z,10.70
2019-05-07T20:05:37.408Z,10.70
2019-05-07T20:08:07.568Z,10.60
2019-05-07T20:10:38.989Z,10.60
2019-05-07T20:13:08.630Z,10.60
2019-05-07T20:15:39.906Z,10.50
2019-05-07T20:18:09.645Z,10.50
2019-05-07T20:20:39.807Z,10.50
2019-05-07T20:23:11.907Z,10.40
2019-05-07T20:25:42.001Z,10.40
2019-05-07T20:28:12.741Z,10.40
2019-05-07T20:30:42.750Z,10.40
2019-05-07T20:33:12.485Z,10.50
2019-05-07T20:35:43.747Z,10.50
2019-05-07T20:38:13.742Z,10.40
2019-05-07T20:40:43.593Z,10.40
2019-05-07T20:43:14.701Z,10.40
2019-05-07T20:45:44.070Z,10.30
2019-05-07T20:48:14.189Z,10.30
2019-05-07T20:50:44.125Z,10.30
2019-05-07T20:53:14.931Z,10.20
2019-05-07T20:55:48.856Z,10.20
2019-05-07T20:58:18.756Z,10.20
2019-05-07T21:00:48.503Z,10.20
2019-05-07T21:03:24.901Z,10.20
2019-05-07T21:05:54.851Z,10.20
2019-05-07T21:08:25.044Z,10.20
2019-05-07T21:10:54.889Z,10.20
2019-05-07T21:13:31.465Z,10.20
2019-05-07T21:15:57.561Z,10.20
2019-05-07T21:18:27.683Z,10.10
2019-05-07T21:20:57.442Z,10.10
2019-05-07T21:23:27.455Z,10.10
2019-05-07T21:25:58.219Z,10.10
2019-05-07T21:28:27.743Z,10.10
2019-05-07T21:30:57.379Z,10.10
2019-05-07T21:33:26.835Z,10.10
2019-05-07T21:35:57.307Z,10.00
2019-05-07T21:38:27.188Z,10.10
2019-05-07T21:40:56.918Z,10.10
2019-05-07T21:43:26.400Z,10.10
2019-05-07T21:45:56.404Z,10.20
2019-05-07T21:48:26.667Z,10.20
2019-05-07T21:50:56.504Z,10.20
2019-05-07T21:53:36.874Z,10.10
2019-05-07T21:56:26.655Z,10.10
2019-05-07T21:59:03.090Z,10.10
2019-05-07T22:01:34.174Z,10.10
2019-05-07T22:04:04.324Z,10.10
2019-05-07T22:06:34.086Z,10.20
2019-05-07T22:09:05.642Z,10.30
2019-05-07T22:11:35.447Z,10.20
2019-05-07T22:14:05.638Z,10.20
2019-05-07T22:16:35.588Z,10.30
2019-05-07T22:19:05.915Z,10.30
2019-05-07T22:21:35.690Z,10.30
2019-05-07T22:24:05.799Z,10.20
2019-05-07T22:26:35.643Z,10.30
2019-05-07T22:29:05.397Z,10.20
2019-05-07T22:31:44.272Z,10.20
2019-05-07T22:34:25.265Z,10.20
2019-05-07T22:36:55.193Z,10.20
2019-05-07T22:39:25.240Z,10.20
2019-05-07T22:41:55.280Z,10.20
2019-05-07T22:44:26.359Z,10.20
2019-05-07T22:46:58.137Z,10.30
2019-05-07T22:49:27.825Z,10.20
2019-05-07T22:51:57.763Z,10.20
2019-05-07T22:54:28.507Z,10.30
2019-05-07T22:57:08.779Z,10.20
2019-05-07T22:59:38.563Z,10.20
2019-05-07T23:02:08.748Z,10.20
2019-05-07T23:04:39.003Z,10.20
2019-05-07T23:07:08.539Z,10.20
2019-05-07T23:09:38.188Z,10.20
2019-05-07T23:12:07.679Z,10.10
2019-05-07T23:14:37.627Z,10.10
2019-05-07T23:17:07.596Z,10.10
2019-05-07T23:19:37.458Z,10.10
2019-05-07T23:22:07.398Z,10.10
2019-05-07T23:24:37.451Z,10.10
2019-05-07T23:27:06.987Z,10.10
2019-05-07T23:29:36.916Z,10.10
2019-05-07T23:32:06.595Z,10.10
2019-05-07T23:34:36.355Z,10.10
2019-05-07T23:37:06.045Z,10.00
2019-05-07T23:39:42.081Z,10.00
2019-05-07T23:42:13.446Z,10.10
2019-05-07T23:44:43.326Z,10.00
2019-05-07T23:47:13.261Z,10.00
2019-05-07T23:49:43.173Z,10.00
2019-05-07T23:52:13.087Z,10.00
2019-05-07T23:54:42.974Z,10.00
2019-05-07T23:57:15.383Z,10.00
2019-05-07T23:59:44.020Z,10.00
